This is the latest recevied weather packets stored in our database for station/object DB0SMU-12. If no packets are shown the sender has not sent any weather packets the latest 1 day(s).
| Time | Temp. | Humidity | Pressure | Rain* | Wind** | Luminosity | Snow |
|---|---|---|---|---|---|---|---|
| 1778075979 | 15.56° C | 71% | 1007 hPa | 0.51 mm | - | - | - |
| 1778075617 | 15° C | 72% | 1007.2 hPa | 0.25 mm | - | - | - |
| 1778075436 | 15° C | 71% | 1007.3 hPa | 0.25 mm | - | - | - |
| 1778073989 | 16.11° C | 63% | 1007 hPa | 0 mm | - | - | - |
| 1778073808 | 16.11° C | 64% | 1007 hPa | 0 mm | - | - | - |
| 1778073627 | 16.11° C | 60% | 1007 hPa | 0 mm | - | - | - |
| 1778073446 | 15.56° C | 60% | 1007 hPa | 0 mm | - | - | - |
| 1778073265 | 15.56° C | 57% | 1006.9 hPa | 0 mm | - | - | - |
| 1778072361 | 16.67° C | 55% | 1006.6 hPa | 0 mm | - | - | - |
| 1778072180 | 16.67° C | 54% | 1006.5 hPa | 0 mm | - | - | - |
| 1778071999 | 16.67° C | 53% | 1006.5 hPa | 0 mm | - | - | - |
| 1778070733 | 17.78° C | 49% | 1006.7 hPa | 0 mm | - | - | - |
| 1778070552 | 17.78° C | 51% | 1006.6 hPa | 0 mm | - | - | - |
| 1778069648 | 17.22° C | 51% | 1006.6 hPa | 0 mm | - | - | - |
| 1778069467 | 17.22° C | 51% | 1006.6 hPa | 0 mm | - | - | - |
| 1778069286 | 17.22° C | 51% | 1006.7 hPa | 0 mm | - | - | - |
| 1778069105 | 17.22° C | 52% | 1006.7 hPa | 0 mm | - | - | - |
| 1778068924 | 17.22° C | 52% | 1006.5 hPa | 0 mm | - | - | - |
| 1778067296 | 17.22° C | 51% | 1006.8 hPa | 0 mm | - | - | - |
| 1778067115 | 17.22° C | 50% | 1006.9 hPa | 0 mm | - | - | - |
| 1778066934 | 17.78° C | 50% | 1006.8 hPa | 0 mm | - | - | - |
| 1778066753 | 17.78° C | 49% | 1006.9 hPa | 0 mm | - | - | - |
| 1778066572 | 17.78° C | 51% | 1007 hPa | 0 mm | - | - | - |
| 1778066391 | 17.22° C | 50% | 1006.8 hPa | 0 mm | - | - | - |
| 1778065487 | 17.22° C | 49% | 1007.1 hPa | 0 mm | - | - | - |
* Rain latest hour (hover to see other rain measurements)
** Current wind speed in m/s (hover to see current wind gust speed)